createdAt,value
2022-12-31T00:00:25.659Z,-1.94
2022-12-31T00:03:13.249Z,-1.96
2022-12-31T00:05:40.473Z,-1.88
2022-12-31T00:08:08.028Z,-1.92
2022-12-31T00:10:41.506Z,-1.91
2022-12-31T00:13:10.959Z,-1.83
2022-12-31T00:15:39.234Z,-1.76
2022-12-31T00:18:07.209Z,-1.82
2022-12-31T00:20:34.637Z,-1.81
2022-12-31T00:23:02.211Z,-1.92
2022-12-31T00:25:29.319Z,-1.93
2022-12-31T00:27:56.849Z,-2.00
2022-12-31T00:30:24.074Z,-1.98
2022-12-31T00:32:51.637Z,-2.02
2022-12-31T00:35:18.878Z,-2.00
2022-12-31T00:37:46.362Z,-2.06
2022-12-31T00:40:14.190Z,-2.12
2022-12-31T00:42:41.769Z,-2.13
2022-12-31T00:45:09.223Z,-2.18
2022-12-31T00:47:36.667Z,-2.11
2022-12-31T00:50:04.118Z,-2.00
2022-12-31T00:52:31.593Z,-2.01
2022-12-31T00:55:00.377Z,-2.00
2022-12-31T00:57:27.874Z,-2.14
2022-12-31T00:59:55.003Z,-2.10
2022-12-31T01:02:22.664Z,-2.08
2022-12-31T01:04:49.960Z,-2.09
2022-12-31T01:07:17.453Z,-2.13
2022-12-31T01:09:44.619Z,-2.14
2022-12-31T01:12:12.085Z,-2.13
2022-12-31T01:14:39.199Z,-2.17
2022-12-31T01:17:06.772Z,-2.20
2022-12-31T01:19:33.898Z,-2.24
2022-12-31T01:22:01.463Z,-2.34
2022-12-31T01:24:28.625Z,-2.39
2022-12-31T01:26:58.102Z,-2.53
2022-12-31T01:29:26.390Z,-2.49
2022-12-31T01:31:53.893Z,-2.42
2022-12-31T01:34:21.055Z,-2.39
2022-12-31T01:36:48.676Z,-2.46
2022-12-31T01:39:15.881Z,-2.53
2022-12-31T01:41:45.670Z,-2.48
2022-12-31T01:44:12.798Z,-2.60
2022-12-31T01:47:02.362Z,-2.43
2022-12-31T01:49:44.601Z,-2.52
2022-12-31T01:52:14.840Z,-2.48
2022-12-31T01:54:47.411Z,-2.40
2022-12-31T01:57:16.047Z,-2.32
2022-12-31T01:59:45.295Z,-2.30
2022-12-31T02:02:14.973Z,-2.21
2022-12-31T02:04:42.321Z,-2.13
2022-12-31T02:07:11.528Z,-2.14
2022-12-31T02:09:42.018Z,-2.09
2022-12-31T02:12:11.070Z,-2.03
2022-12-31T02:14:42.478Z,-2.05
2022-12-31T02:17:42.079Z,-1.93
2022-12-31T02:20:24.556Z,-1.91
2022-12-31T02:23:29.605Z,-1.85
2022-12-31T02:26:05.575Z,-1.81
2022-12-31T02:28:42.247Z,-1.71
2022-12-31T02:31:17.066Z,-1.68
2022-12-31T02:34:07.919Z,-1.71
2022-12-31T02:36:40.438Z,-1.56
2022-12-31T02:39:10.666Z,-1.54
2022-12-31T02:41:53.975Z,-1.53
2022-12-31T02:44:36.316Z,-1.45
2022-12-31T02:47:06.759Z,-1.43
2022-12-31T02:49:43.123Z,-1.44
2022-12-31T02:52:19.089Z,-1.31
2022-12-31T02:55:14.039Z,-1.28
2022-12-31T02:57:51.714Z,-1.19
2022-12-31T03:00:37.947Z,-1.25
2022-12-31T03:03:07.152Z,-1.20
2022-12-31T03:05:40.508Z,-1.14
2022-12-31T03:08:08.422Z,-1.15
2022-12-31T03:10:38.309Z,-1.16
2022-12-31T03:13:05.520Z,-1.11
2022-12-31T03:15:34.718Z,-0.93
2022-12-31T03:18:03.896Z,-0.93
2022-12-31T03:21:02.211Z,-0.86
2022-12-31T03:24:05.938Z,-0.91
2022-12-31T03:26:33.422Z,-0.83
2022-12-31T03:29:00.544Z,-0.78
2022-12-31T03:31:28.800Z,-0.73
2022-12-31T03:33:56.017Z,-0.79
2022-12-31T03:36:23.662Z,-0.74
2022-12-31T03:38:52.875Z,-0.70
2022-12-31T03:41:23.385Z,-0.73
2022-12-31T03:43:50.607Z,-0.59
2022-12-31T03:46:18.254Z,-0.59
2022-12-31T03:48:45.445Z,-0.60
2022-12-31T03:51:13.644Z,-0.56
2022-12-31T03:53:40.834Z,-0.56
2022-12-31T03:56:08.352Z,-0.57
2022-12-31T03:58:35.547Z,-0.59
2022-12-31T04:01:03.246Z,-0.59
2022-12-31T04:03:30.387Z,-0.66
2022-12-31T04:05:57.992Z,-0.72
2022-12-31T04:08:25.561Z,-0.80
2022-12-31T04:10:53.162Z,-0.74
2022-12-31T04:13:20.373Z,-0.73
2022-12-31T04:15:51.152Z,-0.64
2022-12-31T04:18:18.389Z,-0.66
2022-12-31T04:20:45.847Z,-0.65
2022-12-31T04:23:13.024Z,-0.65
2022-12-31T04:25:40.493Z,-0.65
2022-12-31T04:28:07.669Z,-0.68
2022-12-31T04:30:35.169Z,-0.70
2022-12-31T04:33:04.874Z,-0.65
2022-12-31T04:35:32.364Z,-0.74
2022-12-31T04:37:59.534Z,-0.65
2022-12-31T04:40:26.993Z,-0.70
2022-12-31T04:42:54.133Z,-0.69
2022-12-31T04:45:21.554Z,-0.72
2022-12-31T04:47:48.754Z,-0.80
2022-12-31T04:50:16.340Z,-0.85
2022-12-31T04:52:43.565Z,-0.88
2022-12-31T04:55:11.771Z,-0.80
2022-12-31T04:57:39.294Z,-0.77
2022-12-31T05:00:08.181Z,-0.66
2022-12-31T05:02:35.522Z,-0.69
2022-12-31T05:05:03.232Z,-0.71
2022-12-31T05:07:30.389Z,-0.85
2022-12-31T05:09:57.902Z,-0.92
2022-12-31T05:12:25.145Z,-0.93
2022-12-31T05:14:52.650Z,-0.93
2022-12-31T05:17:20.912Z,-0.95
2022-12-31T05:19:48.349Z,-0.99
2022-12-31T05:22:30.749Z,-1.02
2022-12-31T05:24:59.671Z,-1.05
2022-12-31T05:27:28.844Z,-1.03
2022-12-31T05:29:55.879Z,-1.13
2022-12-31T05:32:23.384Z,-1.04
2022-12-31T05:34:50.594Z,-1.05
2022-12-31T05:37:18.064Z,-0.96
2022-12-31T05:39:45.178Z,-0.98
2022-12-31T05:42:12.589Z,-0.79
2022-12-31T05:44:39.768Z,-0.63
2022-12-31T05:47:07.278Z,-0.56
2022-12-31T05:49:34.518Z,-0.49
2022-12-31T05:52:02.056Z,-0.52
2022-12-31T05:54:29.271Z,-0.28
2022-12-31T05:56:57.075Z,-0.30
2022-12-31T05:59:24.314Z,-0.42
2022-12-31T06:01:52.033Z,-0.37
2022-12-31T06:04:19.210Z,-0.28
2022-12-31T06:06:46.738Z,-0.20
2022-12-31T06:09:18.112Z,-0.13
2022-12-31T06:11:47.307Z,0.05
2022-12-31T06:14:14.475Z,0.15
2022-12-31T06:16:42.709Z,0.10
2022-12-31T06:19:10.352Z,0.16
2022-12-31T06:21:38.074Z,0.20
2022-12-31T06:24:05.699Z,0.35
2022-12-31T06:26:33.196Z,0.18
2022-12-31T06:29:00.367Z,0.30
2022-12-31T06:31:28.020Z,0.32
2022-12-31T06:33:55.375Z,0.33
2022-12-31T06:36:22.905Z,0.31
2022-12-31T06:38:50.089Z,0.47
2022-12-31T06:41:18.549Z,0.52
2022-12-31T06:43:46.363Z,0.38
2022-12-31T06:46:16.374Z,0.39
2022-12-31T06:48:45.059Z,0.40
2022-12-31T06:51:18.772Z,0.44
2022-12-31T06:53:47.636Z,0.46
2022-12-31T06:56:18.353Z,0.59
2022-12-31T06:58:46.539Z,0.54
2022-12-31T07:01:40.269Z,0.61
2022-12-31T07:04:54.110Z,0.75
2022-12-31T07:07:33.377Z,0.78
2022-12-31T07:10:06.431Z,0.77
2022-12-31T07:13:03.834Z,0.71
2022-12-31T07:15:30.949Z,0.75
2022-12-31T07:18:15.208Z,0.75
2022-12-31T07:20:42.761Z,0.62
2022-12-31T07:23:10.514Z,0.83
2022-12-31T07:25:44.688Z,0.91
2022-12-31T07:28:22.531Z,1.18
2022-12-31T07:31:23.586Z,1.18
2022-12-31T07:34:04.804Z,1.45
2022-12-31T07:36:49.923Z,1.55
2022-12-31T07:39:28.497Z,1.77
2022-12-31T07:42:11.629Z,2.07
2022-12-31T07:45:18.219Z,2.52
2022-12-31T07:47:46.446Z,2.79
2022-12-31T07:50:16.364Z,3.04
2022-12-31T07:52:44.765Z,3.17
2022-12-31T07:55:12.819Z,3.38
2022-12-31T07:58:01.381Z,3.53
2022-12-31T08:00:30.616Z,3.59
2022-12-31T08:03:09.979Z,3.65
2022-12-31T08:05:53.461Z,3.63
2022-12-31T08:08:35.353Z,3.63
2022-12-31T08:11:25.161Z,3.75
2022-12-31T08:13:56.412Z,3.64
2022-12-31T08:16:24.493Z,3.61
2022-12-31T08:18:51.924Z,3.59
2022-12-31T08:21:35.216Z,3.50
2022-12-31T08:24:24.116Z,3.50
2022-12-31T08:27:13.385Z,3.45
2022-12-31T08:29:44.892Z,3.49
2022-12-31T08:32:22.296Z,3.61
2022-12-31T08:35:15.127Z,3.63
2022-12-31T08:37:51.418Z,3.66
2022-12-31T08:40:18.572Z,3.89
2022-12-31T08:42:58.561Z,3.85
2022-12-31T08:45:28.975Z,3.99
2022-12-31T08:48:08.661Z,4.34
2022-12-31T08:50:36.175Z,4.70
2022-12-31T08:53:04.108Z,5.28
2022-12-31T08:55:31.495Z,5.78
2022-12-31T08:58:29.160Z,6.19
2022-12-31T09:00:59.343Z,6.65
2022-12-31T09:03:42.159Z,6.74
2022-12-31T09:06:29.569Z,6.95
2022-12-31T09:09:09.302Z,7.51
2022-12-31T09:11:48.420Z,8.09
2022-12-31T09:14:47.512Z,8.54
2022-12-31T09:17:39.338Z,8.91
2022-12-31T09:20:14.191Z,8.92
2022-12-31T09:22:41.977Z,9.07
2022-12-31T09:25:17.219Z,9.05
2022-12-31T09:27:56.434Z,9.10
2022-12-31T09:30:26.648Z,9.26
2022-12-31T09:33:36.441Z,9.77
2022-12-31T09:36:07.773Z,10.23
2022-12-31T09:38:40.105Z,10.22
2022-12-31T09:41:16.655Z,10.03
2022-12-31T09:44:02.282Z,9.76
2022-12-31T09:46:48.127Z,9.89
2022-12-31T09:49:36.952Z,10.22
2022-12-31T09:52:19.491Z,10.27
2022-12-31T09:55:02.391Z,10.20
2022-12-31T09:57:58.140Z,10.00
2022-12-31T10:00:43.879Z,9.41
2022-12-31T10:03:32.191Z,9.17
2022-12-31T10:06:27.308Z,9.21
2022-12-31T10:09:35.074Z,9.08
2022-12-31T10:12:39.389Z,9.19
2022-12-31T10:15:19.870Z,9.07
2022-12-31T10:18:23.838Z,8.86
2022-12-31T10:21:01.297Z,8.86
2022-12-31T10:23:46.626Z,9.20
2022-12-31T10:26:21.330Z,9.53
2022-12-31T10:28:56.622Z,9.89
2022-12-31T10:31:37.738Z,10.19
2022-12-31T10:34:14.960Z,10.19
2022-12-31T10:37:09.441Z,10.31
2022-12-31T10:39:45.563Z,10.21
2022-12-31T10:42:25.704Z,10.28
2022-12-31T10:44:58.776Z,10.28
2022-12-31T10:47:26.379Z,10.33
2022-12-31T10:50:22.068Z,10.43
2022-12-31T10:53:08.545Z,10.46
2022-12-31T10:55:57.192Z,10.64
2022-12-31T10:58:51.316Z,10.75
2022-12-31T11:01:30.618Z,10.82
2022-12-31T11:04:34.232Z,10.76
2022-12-31T11:07:32.747Z,10.68
2022-12-31T11:10:21.812Z,10.61
2022-12-31T11:13:07.286Z,10.39
2022-12-31T11:16:16.092Z,10.33
2022-12-31T11:19:04.848Z,10.22
2022-12-31T11:21:50.353Z,10.07
2022-12-31T11:24:47.020Z,10.13
2022-12-31T11:27:46.081Z,10.10
2022-12-31T11:30:34.659Z,10.02
2022-12-31T11:33:08.110Z,10.30
2022-12-31T11:35:48.306Z,10.35
2022-12-31T11:38:24.203Z,10.49
2022-12-31T11:41:39.326Z,10.84
2022-12-31T11:44:24.006Z,11.13
2022-12-31T11:47:01.857Z,10.97
2022-12-31T11:49:47.454Z,10.92
2022-12-31T11:52:26.728Z,10.88
2022-12-31T11:54:54.789Z,10.98
2022-12-31T11:57:27.646Z,11.25
2022-12-31T12:00:02.218Z,11.54
2022-12-31T12:02:46.040Z,11.83
2022-12-31T12:05:17.127Z,12.09
2022-12-31T12:07:44.761Z,12.19
2022-12-31T12:10:46.732Z,12.41
2022-12-31T12:13:34.772Z,12.49
2022-12-31T12:16:06.889Z,12.51
2022-12-31T12:18:37.164Z,12.46
2022-12-31T12:21:25.378Z,12.24
2022-12-31T12:24:07.029Z,11.95
2022-12-31T12:26:43.346Z,11.69
2022-12-31T12:29:16.848Z,11.45
2022-12-31T12:32:07.958Z,11.11
2022-12-31T12:34:46.049Z,10.91
2022-12-31T12:37:37.185Z,10.66
2022-12-31T12:40:29.774Z,10.37
2022-12-31T12:42:59.330Z,10.16
2022-12-31T12:45:30.401Z,10.09
2022-12-31T12:48:02.340Z,9.95
2022-12-31T12:50:42.534Z,9.88
2022-12-31T12:53:16.259Z,9.81
2022-12-31T12:55:55.498Z,9.73
2022-12-31T12:58:48.592Z,9.81
2022-12-31T13:01:27.730Z,9.86
2022-12-31T13:07:23.664Z,10.00
2022-12-31T13:10:06.459Z,10.09
2022-12-31T13:13:21.966Z,10.18
2022-12-31T13:16:08.346Z,10.24
2022-12-31T13:18:46.527Z,10.23
2022-12-31T13:21:32.638Z,10.24
2022-12-31T13:24:23.774Z,10.12
2022-12-31T13:27:13.537Z,9.93
2022-12-31T13:29:43.848Z,9.99
2022-12-31T13:32:19.049Z,9.93
2022-12-31T13:34:50.374Z,9.99
2022-12-31T13:37:37.595Z,10.00
2022-12-31T13:40:21.675Z,9.95
2022-12-31T13:43:04.917Z,9.95
2022-12-31T13:45:41.184Z,9.88
2022-12-31T13:48:16.459Z,9.84
2022-12-31T13:51:08.032Z,9.95
2022-12-31T13:54:00.048Z,9.90
2022-12-31T13:56:31.680Z,9.82
2022-12-31T13:59:12.832Z,9.88
2022-12-31T14:01:59.547Z,9.92
2022-12-31T14:04:52.276Z,9.84
2022-12-31T14:07:55.619Z,9.82
2022-12-31T14:10:49.833Z,9.72
2022-12-31T14:13:43.360Z,9.65
2022-12-31T14:16:21.820Z,9.62
2022-12-31T14:18:51.757Z,9.64
2022-12-31T14:21:27.618Z,9.68
2022-12-31T14:24:16.069Z,9.74
2022-12-31T14:26:56.228Z,9.68
2022-12-31T14:29:48.093Z,9.63
2022-12-31T14:32:43.377Z,9.54
2022-12-31T14:35:38.627Z,9.46
2022-12-31T14:38:06.128Z,9.38
2022-12-31T14:41:10.211Z,9.33
2022-12-31T14:43:54.848Z,9.26
2022-12-31T14:46:33.223Z,9.25
2022-12-31T14:49:22.663Z,9.22
2022-12-31T14:51:49.942Z,9.08
2022-12-31T14:54:29.404Z,9.10
2022-12-31T14:56:56.826Z,9.00
2022-12-31T14:59:27.835Z,8.89
2022-12-31T15:01:56.977Z,8.80
2022-12-31T15:04:44.772Z,8.74
2022-12-31T15:07:30.388Z,8.66
2022-12-31T15:10:04.671Z,8.60
2022-12-31T15:13:03.979Z,8.53
2022-12-31T15:16:28.410Z,8.45
2022-12-31T15:19:19.699Z,8.34
2022-12-31T15:22:31.733Z,8.20
2022-12-31T15:25:01.206Z,8.06
2022-12-31T15:27:37.434Z,8.11
2022-12-31T15:30:07.251Z,8.09
2022-12-31T15:32:41.656Z,7.97
2022-12-31T15:35:21.184Z,8.04
2022-12-31T15:38:32.899Z,8.09
2022-12-31T15:41:01.337Z,8.05
2022-12-31T15:43:43.660Z,7.97
2022-12-31T15:46:19.902Z,7.99
2022-12-31T15:48:55.495Z,7.95
2022-12-31T15:51:36.524Z,7.92
2022-12-31T15:54:07.299Z,7.94
2022-12-31T15:56:39.643Z,8.02
2022-12-31T15:59:14.978Z,8.22
2022-12-31T16:01:43.956Z,8.25
2022-12-31T16:04:23.128Z,8.35
2022-12-31T16:06:51.811Z,8.36
2022-12-31T16:09:29.138Z,8.47
2022-12-31T16:11:58.009Z,8.50
2022-12-31T16:14:46.568Z,8.47
2022-12-31T16:17:36.762Z,8.64
2022-12-31T16:20:25.780Z,8.64
2022-12-31T16:22:57.775Z,8.67
2022-12-31T16:25:31.306Z,8.70
2022-12-31T16:27:59.756Z,8.79
2022-12-31T16:30:32.374Z,8.69
2022-12-31T16:33:04.366Z,8.71
2022-12-31T16:35:34.261Z,8.77
2022-12-31T16:38:19.769Z,8.72
2022-12-31T16:41:21.029Z,8.66
2022-12-31T16:43:49.833Z,8.63
2022-12-31T16:46:31.317Z,8.63
2022-12-31T16:49:14.169Z,8.56
2022-12-31T16:51:42.273Z,8.49
2022-12-31T16:54:20.937Z,8.48
2022-12-31T16:56:49.758Z,8.37
2022-12-31T16:59:24.264Z,8.44
2022-12-31T17:01:56.215Z,8.35
2022-12-31T17:04:24.755Z,8.28
2022-12-31T17:06:52.289Z,8.39
2022-12-31T17:09:22.054Z,8.32
2022-12-31T17:12:10.294Z,8.38
2022-12-31T17:14:49.636Z,8.37
2022-12-31T17:17:27.973Z,8.38
2022-12-31T17:20:00.548Z,8.28
2022-12-31T17:22:37.193Z,8.22
2022-12-31T17:25:20.649Z,8.17
2022-12-31T17:28:02.769Z,8.08
2022-12-31T17:30:30.036Z,8.12
2022-12-31T17:33:12.833Z,8.28
2022-12-31T17:35:42.633Z,8.29
2022-12-31T17:38:22.184Z,8.41
2022-12-31T17:41:06.683Z,8.47
2022-12-31T17:43:36.671Z,8.54
2022-12-31T17:46:11.086Z,8.76
2022-12-31T17:48:39.079Z,8.73
2022-12-31T17:51:06.600Z,8.68
2022-12-31T17:53:34.337Z,8.68
2022-12-31T17:56:04.632Z,8.74
2022-12-31T17:58:44.003Z,8.65
2022-12-31T18:01:15.615Z,8.73
2022-12-31T18:03:44.139Z,8.79
2022-12-31T18:06:16.521Z,8.82
2022-12-31T18:08:45.059Z,8.72
2022-12-31T18:11:17.194Z,8.66
2022-12-31T18:13:45.095Z,8.66
2022-12-31T18:16:12.643Z,8.65
2022-12-31T18:18:42.131Z,8.68
2022-12-31T18:21:17.966Z,8.85
2022-12-31T18:23:47.399Z,8.90
2022-12-31T18:26:20.188Z,8.92
2022-12-31T18:28:49.223Z,8.99
2022-12-31T18:31:21.990Z,9.03
2022-12-31T18:33:50.941Z,8.88
2022-12-31T18:36:20.494Z,8.82
2022-12-31T18:38:48.765Z,8.76
2022-12-31T18:41:27.147Z,8.87
2022-12-31T18:43:55.579Z,9.04
2022-12-31T18:46:25.436Z,8.98
2022-12-31T18:48:53.117Z,8.88
2022-12-31T18:51:31.032Z,8.76
2022-12-31T18:54:03.898Z,8.70
2022-12-31T18:56:31.640Z,8.54
2022-12-31T18:58:59.978Z,8.40
2022-12-31T19:01:30.505Z,8.41
2022-12-31T19:04:04.121Z,8.36
2022-12-31T19:06:31.778Z,8.36
2022-12-31T19:09:01.117Z,8.35
2022-12-31T19:11:29.169Z,8.49
2022-12-31T19:13:56.322Z,8.48
2022-12-31T19:16:23.929Z,8.73
2022-12-31T19:18:51.227Z,8.84
2022-12-31T19:21:25.777Z,8.87
2022-12-31T19:23:54.932Z,8.97
2022-12-31T19:26:23.292Z,9.07
2022-12-31T19:28:52.093Z,9.26
2022-12-31T19:31:19.744Z,9.23
2022-12-31T19:33:47.266Z,9.47
2022-12-31T19:36:20.686Z,9.57
2022-12-31T19:38:47.999Z,9.49
2022-12-31T19:41:21.603Z,9.61
2022-12-31T19:43:49.690Z,9.58
2022-12-31T19:46:18.682Z,9.58
2022-12-31T19:48:46.421Z,9.48
2022-12-31T19:51:21.746Z,9.42
2022-12-31T19:53:50.292Z,8.78
2022-12-31T19:56:20.430Z,8.28
2022-12-31T19:58:47.778Z,7.82
2022-12-31T20:01:23.747Z,7.41
2022-12-31T20:03:51.939Z,7.26
2022-12-31T20:06:19.617Z,7.03
2022-12-31T20:08:46.978Z,6.90
2022-12-31T20:11:17.576Z,6.69
2022-12-31T20:13:46.113Z,6.44
2022-12-31T20:16:16.095Z,6.26
2022-12-31T20:18:44.974Z,6.05
2022-12-31T20:21:15.310Z,5.87
2022-12-31T20:23:42.464Z,5.71
2022-12-31T20:26:10.733Z,5.56
2022-12-31T20:28:38.253Z,5.50
2022-12-31T20:31:11.469Z,5.46
2022-12-31T20:33:38.944Z,5.36
2022-12-31T20:36:08.880Z,5.41
2022-12-31T20:38:36.128Z,5.41
2022-12-31T20:41:09.112Z,5.29
2022-12-31T20:43:37.113Z,5.34
2022-12-31T20:46:15.759Z,5.37
2022-12-31T20:48:45.082Z,5.18
2022-12-31T20:51:13.671Z,5.11
2022-12-31T20:53:46.850Z,4.93
2022-12-31T20:56:14.571Z,4.65
2022-12-31T20:58:44.476Z,4.56
2022-12-31T21:01:12.785Z,4.53
2022-12-31T21:06:30.941Z,4.31
2022-12-31T21:09:00.194Z,4.25
2022-12-31T21:11:46.209Z,4.17
2022-12-31T21:14:13.507Z,4.12
2022-12-31T21:16:41.083Z,4.07
2022-12-31T21:19:09.122Z,4.06
2022-12-31T21:21:36.977Z,4.18
2022-12-31T21:24:04.573Z,4.17
2022-12-31T21:26:32.357Z,4.10
2022-12-31T21:28:59.679Z,4.12
2022-12-31T21:31:27.365Z,4.12
2022-12-31T21:33:55.235Z,4.17
2022-12-31T21:36:22.973Z,4.16
2022-12-31T21:38:50.211Z,4.16
2022-12-31T21:41:36.205Z,4.16
2022-12-31T21:44:03.959Z,4.21
2022-12-31T21:46:31.615Z,4.24
2022-12-31T21:49:00.638Z,4.24
2022-12-31T21:51:31.370Z,4.13
2022-12-31T21:53:58.656Z,4.17
2022-12-31T21:56:26.196Z,4.18
2022-12-31T21:59:14.558Z,4.16
2022-12-31T22:02:01.429Z,4.24
2022-12-31T22:05:00.779Z,4.26
2022-12-31T22:07:16.559Z,4.13
2022-12-31T22:09:43.732Z,4.16
2022-12-31T22:12:11.748Z,4.03
2022-12-31T22:14:38.990Z,3.97
2022-12-31T22:17:26.744Z,3.83
2022-12-31T22:20:25.115Z,3.84
2022-12-31T22:22:42.193Z,3.75
2022-12-31T22:25:10.038Z,3.83
2022-12-31T22:27:37.636Z,3.78
2022-12-31T22:30:06.538Z,3.73
2022-12-31T22:32:34.192Z,3.71
2022-12-31T22:35:01.382Z,3.55
2022-12-31T22:37:55.659Z,3.54
2022-12-31T22:40:17.343Z,3.42
2022-12-31T22:42:45.409Z,3.41
2022-12-31T22:45:12.627Z,3.36
2022-12-31T22:47:40.267Z,3.38
2022-12-31T22:50:08.103Z,3.38
2022-12-31T22:52:35.665Z,3.33
2022-12-31T22:55:02.988Z,3.37
2022-12-31T22:57:30.494Z,3.28
2022-12-31T22:59:57.701Z,3.37
2022-12-31T23:02:25.428Z,3.27
2022-12-31T23:04:52.868Z,3.22
2022-12-31T23:07:40.528Z,3.13
2022-12-31T23:10:28.098Z,3.20
2022-12-31T23:12:55.823Z,3.03
2022-12-31T23:15:41.555Z,3.03
2022-12-31T23:18:28.114Z,2.96
2022-12-31T23:21:17.763Z,2.92
2022-12-31T23:23:45.438Z,3.03
2022-12-31T23:26:12.659Z,2.85
2022-12-31T23:28:42.003Z,2.83
2022-12-31T23:31:09.321Z,2.75
2022-12-31T23:33:37.037Z,2.81
2022-12-31T23:36:07.798Z,2.82
2022-12-31T23:38:36.358Z,2.78
2022-12-31T23:41:18.767Z,2.68
2022-12-31T23:43:46.533Z,2.70
2022-12-31T23:46:14.725Z,2.69
2022-12-31T23:48:42.632Z,2.66
2022-12-31T23:51:10.269Z,2.56
2022-12-31T23:53:39.284Z,2.52
2022-12-31T23:56:20.912Z,2.38
2022-12-31T23:58:56.395Z,2.35
